Time;durP1;ratioP1;P1;durP2;ratioP2;P2;SDS_P1;SDS_P2;PMS_P1;PMS_P2;Temp;Humidity;BMP_temperature;BMP_pressure;BME280_temperature;BME280_humidity;BME280_pressure;Samples;Min_cycle;Max_cycle;Signal;HPM_P1;HPM_P2
2022/05/21 00:01:08;;;;;;;10.48;5.75;;;;;;;11.08;86.98;99816.44;5003753;28;20038;-56
2022/05/21 00:03:33;;;;;;;8.50;5.85;;;;;;;10.97;87.22;99815.38;5007440;28;20040;-56
2022/05/21 00:05:59;;;;;;;7.80;5.82;;;;;;;10.96;87.80;99816.44;5006826;28;20052;-56
2022/05/21 00:08:27;;;;;;;11.07;6.00;;;;;;;10.92;87.53;99815.25;4988358;28;20381;-56
2022/05/21 00:10:53;;;;;;;10.35;5.57;;;;;;;10.74;88.32;99818.84;5006037;28;20484;-55
2022/05/21 00:13:19;;;;;;;11.05;6.30;;;;;;;10.67;88.60;99823.47;5006246;28;20025;-55
2022/05/21 00:15:45;;;;;;;10.73;6.38;;;;;;;10.70;88.50;99816.84;4993233;28;20034;-56
2022/05/21 00:18:10;;;;;;;11.25;6.03;;;;;;;10.75;88.30;99819.66;4980621;28;20494;-55
2022/05/21 00:20:48;;;;;;;10.65;6.28;;;;;;;10.67;88.83;99833.38;5005835;28;20115;-57
2022/05/21 00:23:16;;;;;;;12.80;6.63;;;;;;;10.68;89.55;99832.34;5001025;28;20161;-57
2022/05/21 00:25:42;;;;;;;13.10;6.60;;;;;;;10.52;90.02;99834.63;4989886;28;20431;-56
2022/05/21 00:28:07;;;;;;;11.30;7.60;;;;;;;10.54;89.68;99827.16;4990196;28;20691;-56
2022/05/21 00:30:33;;;;;;;9.98;7.28;;;;;;;10.50;90.41;99825.97;5007169;28;20033;-57
2022/05/21 00:33:00;;;;;;;13.00;7.22;;;;;;;10.38;90.05;99838.50;5006655;28;20568;-56
2022/05/21 00:35:25;;;;;;;15.82;8.52;;;;;;;10.43;90.77;99827.13;5007383;28;20030;-57
2022/05/21 00:37:51;;;;;;;14.73;7.72;;;;;;;10.43;89.78;99830.59;4985686;28;20030;-56
2022/05/21 00:40:22;;;;;;;14.50;8.18;;;;;;;10.39;90.04;99829.44;5005947;28;20108;-56
2022/05/21 00:42:47;;;;;;;13.27;7.82;;;;;;;10.44;91.44;99832.25;4988828;28;20480;-56
2022/05/21 00:45:13;;;;;;;13.93;9.13;;;;;;;10.36;90.46;99830.72;5006318;28;20037;-57
2022/05/21 00:47:39;;;;;;;13.10;8.57;;;;;;;10.44;90.41;99832.25;5006521;28;20481;-56
2022/05/21 00:50:05;;;;;;;15.27;8.25;;;;;;;10.38;89.96;99846.53;5006017;28;20081;-56
2022/05/21 00:52:31;;;;;;;12.73;8.55;;;;;;;10.34;90.95;99842.69;5005754;28;20021;-57
2022/05/21 00:55:08;;;;;;;13.85;8.82;;;;;;;10.44;91.97;99842.97;4959398;28;20497;-56
2022/05/21 01:00:51;;;;;;;14.50;9.02;;;;;;;10.34;91.89;99853.41;5002260;28;20048;-56
2022/05/21 01:03:17;;;;;;;16.10;9.65;;;;;;;10.20;91.01;99852.72;5004432;28;20042;-56
2022/05/21 01:05:44;;;;;;;15.00;8.75;;;;;;;10.31;91.41;99853.88;5000128;28;20042;-55
2022/05/21 01:08:10;;;;;;;15.52;8.60;;;;;;;10.09;91.33;99851.63;5005707;28;20026;-57
2022/05/21 01:10:37;;;;;;;12.65;9.20;;;;;;;9.94;92.27;99848.50;5005411;28;20720;-55
2022/05/21 01:13:07;;;;;;;18.20;9.30;;;;;;;9.75;93.52;99854.88;5006185;28;20041;-56
2022/05/21 01:15:36;;;;;;;14.20;9.38;;;;;;;9.38;95.39;99860.16;4978749;28;20141;-56
2022/05/21 01:18:05;;;;;;;18.38;9.43;;;;;;;9.26;96.88;99852.84;4985263;28;20060;-56
2022/05/21 01:20:36;;;;;;;20.92;11.40;;;;;;;9.05;97.83;99850.53;5005811;28;20029;-57
2022/05/21 01:23:02;;;;;;;19.05;11.32;;;;;;;9.20;97.53;99859.06;4999055;28;20079;-56
2022/05/21 01:25:28;;;;;;;16.80;10.43;;;;;;;9.41;97.03;99859.72;5006905;28;20030;-55
2022/05/21 01:27:53;;;;;;;21.23;10.52;;;;;;;9.56;95.61;99857.53;4962088;28;20084;-56
2022/05/21 01:30:27;;;;;;;16.55;9.40;;;;;;;9.76;94.06;99859.19;4988850;28;20030;-56
2022/05/21 01:32:52;;;;;;;17.88;9.15;;;;;;;9.95;93.24;99850.13;4979354;28;20113;-55
2022/05/21 01:35:18;;;;;;;14.88;8.40;;;;;;;9.99;91.91;99856.69;5005307;28;20026;-56
2022/05/21 01:37:45;;;;;;;16.27;8.90;;;;;;;10.09;93.88;99864.19;5006217;28;20504;-56
2022/05/21 01:40:11;;;;;;;14.90;8.60;;;;;;;10.06;91.64;99862.78;5005029;28;20037;-56
2022/05/21 01:42:37;;;;;;;11.95;7.57;;;;;;;10.12;92.69;99861.88;4988372;28;20646;-56
2022/05/21 01:45:03;;;;;;;14.75;7.40;;;;;;;10.13;91.45;99866.22;4988013;28;20118;-56
2022/05/21 01:47:29;;;;;;;11.25;7.55;;;;;;;10.14;91.06;99861.66;4988032;28;20136;-56
2022/05/21 01:49:55;;;;;;;11.88;8.07;;;;;;;9.87;92.21;99866.50;4971988;28;20045;-55
2022/05/21 01:52:23;;;;;;;15.25;9.38;;;;;;;9.66;94.03;99865.03;5006627;28;20544;-56
2022/05/21 01:54:49;;;;;;;16.98;9.43;;;;;;;9.67;94.74;99859.47;5005717;28;20659;-57
2022/05/21 01:57:14;;;;;;;17.40;8.95;;;;;;;9.80;94.12;99873.78;5001235;28;20034;-55
2022/05/21 01:59:40;;;;;;;13.88;8.40;;;;;;;9.71;94.23;99873.25;5005446;28;20456;-56
2022/05/21 02:02:06;;;;;;;23.60;9.35;;;;;;;9.70;94.40;99877.75;5004631;28;20389;-56
2022/05/21 02:04:32;;;;;;;13.60;8.82;;;;;;;9.60;93.91;99879.31;5005634;28;20472;-56
2022/05/21 02:06:57;;;;;;;20.35;9.23;;;;;;;9.42;95.52;99877.41;5005616;28;20040;-56
2022/05/21 02:09:23;;;;;;;18.80;9.45;;;;;;;9.14;95.79;99878.66;5004932;28;20436;-55
2022/05/21 02:11:48;;;;;;;18.65;9.73;;;;;;;8.96;97.26;99867.88;4993918;28;20038;-56
2022/05/21 02:14:14;;;;;;;16.05;9.27;;;;;;;9.28;95.93;99882.88;4996915;28;20881;-56
2022/05/21 02:16:40;;;;;;;17.38;8.40;;;;;;;9.31;95.17;99886.97;5007023;28;20037;-56
2022/05/21 02:19:06;;;;;;;15.48;9.55;;;;;;;9.32;95.28;99885.94;5007813;28;20124;-56
2022/05/21 02:21:32;;;;;;;16.10;9.60;;;;;;;8.98;97.10;99877.31;5003779;28;20030;-56
2022/05/21 02:23:58;;;;;;;14.07;8.82;;;;;;;8.86;98.13;99884.38;4989663;28;20034;-53
2022/05/21 02:26:24;;;;;;;14.48;9.50;;;;;;;8.97;97.90;99877.56;4992276;28;20112;-57
2022/05/21 02:28:49;;;;;;;16.65;9.45;;;;;;;8.93;98.28;99879.81;5007502;28;20029;-58
2022/05/21 02:31:15;;;;;;;18.20;9.85;;;;;;;8.75;99.45;99880.56;5009292;28;20515;-56
2022/05/21 02:33:41;;;;;;;16.30;10.60;;;;;;;8.74;99.65;99865.56;5008100;28;20137;-56
2022/05/21 02:36:07;;;;;;;16.35;9.57;;;;;;;8.64;100.00;99862.53;4992005;28;20045;-56
2022/05/21 02:41:16;;;;;;;17.02;9.35;;;;;;;8.66;100.00;99863.13;5009656;28;20495;-56
2022/05/21 02:43:43;;;;;;;19.45;10.27;;;;;;;8.78;100.00;99861.41;5008477;28;20037;-56
2022/05/21 02:46:10;;;;;;;18.13;8.90;;;;;;;8.89;100.00;99856.44;5008664;28;20456;-56
2022/05/21 02:48:36;;;;;;;15.70;7.93;;;;;;;9.02;99.08;99862.50;5003708;28;20388;-55
2022/05/21 02:51:01;;;;;;;12.20;8.07;;;;;;;9.14;97.48;99857.28;5007747;28;20037;-55
2022/05/21 02:53:27;;;;;;;11.40;7.13;;;;;;;9.31;96.94;99859.38;5008198;28;20038;-55
2022/05/21 02:55:55;;;;;;;14.40;7.25;;;;;;;9.35;95.96;99866.75;5008562;28;20061;-56
2022/05/21 02:58:21;;;;;;;10.52;6.35;;;;;;;9.35;96.45;99868.63;5008499;28;20033;-55
2022/05/21 03:00:47;;;;;;;17.00;7.70;;;;;;;9.11;95.92;99865.75;5008044;28;20482;-56
2022/05/21 03:03:13;;;;;;;14.55;7.63;;;;;;;8.78;97.86;99865.94;5008137;28;20549;-55
2022/05/21 03:05:38;;;;;;;11.20;7.85;;;;;;;8.86;99.39;99857.66;4988930;28;20026;-55
2022/05/21 03:10:53;;;;;;;14.45;7.85;;;;;;;8.67;100.00;99847.94;5005732;28;20100;-55
2022/05/21 03:13:18;;;;;;;11.23;7.00;;;;;;;8.67;100.00;99845.25;5009512;28;20054;-55
2022/05/21 03:15:44;;;;;;;14.93;7.72;;;;;;;8.76;99.77;99847.47;5009357;28;20112;-54
2022/05/21 03:18:10;;;;;;;13.00;6.57;;;;;;;8.83;99.59;99858.91;5008242;28;20034;-56
2022/05/21 03:20:36;;;;;;;11.95;6.07;;;;;;;8.79;99.47;99857.72;5008493;28;20160;-56
2022/05/21 03:23:02;;;;;;;10.65;5.97;;;;;;;8.91;99.02;99849.00;4988908;28;20125;-55
2022/05/21 03:25:27;;;;;;;12.52;5.93;;;;;;;9.00;98.43;99858.41;5007522;28;20042;-55
2022/05/21 03:27:53;;;;;;;12.55;5.45;;;;;;;9.06;98.37;99858.38;5007451;28;20060;-55
2022/05/21 03:30:23;;;;;;;13.75;5.60;;;;;;;9.06;97.40;99868.22;5008514;28;20034;-54
2022/05/21 03:32:49;;;;;;;7.85;5.28;;;;;;;9.13;96.77;99860.97;5007114;28;20029;-55
2022/05/21 03:35:16;;;;;;;11.20;5.00;;;;;;;9.06;97.36;99871.72;5007178;28;20103;-54
2022/05/21 03:37:42;;;;;;;10.93;5.22;;;;;;;9.15;97.09;99874.94;5006323;28;20221;-54
2022/05/21 03:40:08;;;;;;;14.77;4.70;;;;;;;9.06;96.44;99878.91;5007865;28;20531;-54
2022/05/21 03:42:34;;;;;;;13.07;4.68;;;;;;;9.19;97.51;99881.50;4989933;28;20491;-56
2022/05/21 03:44:59;;;;;;;8.65;4.50;;;;;;;9.11;95.95;99884.47;5007843;28;20069;-54
2022/05/21 03:47:25;;;;;;;8.38;4.38;;;;;;;9.15;95.86;99885.66;5006679;28;20808;-55
2022/05/21 03:49:51;;;;;;;8.50;3.72;;;;;;;9.24;95.28;99887.03;5006703;28;20091;-55
2022/05/21 03:52:16;;;;;;;8.90;3.78;;;;;;;9.41;95.13;99889.16;4990215;28;20026;-53
2022/05/21 03:54:42;;;;;;;6.25;3.38;;;;;;;9.44;93.88;99886.06;5007694;28;20045;-57
2022/05/21 03:57:07;;;;;;;9.85;3.85;;;;;;;9.41;93.59;99889.16;4989197;28;20045;-54
2022/05/21 03:59:36;;;;;;;14.80;3.83;;;;;;;9.59;93.63;99881.19;5007748;28;20030;-55
2022/05/21 04:02:01;;;;;;;7.40;3.17;;;;;;;9.53;92.83;99884.72;5000687;28;20030;-56
2022/05/21 04:04:27;;;;;;;7.72;2.90;;;;;;;9.62;92.60;99879.91;5007512;28;20050;-56
2022/05/21 04:06:52;;;;;;;9.18;3.30;;;;;;;9.73;91.21;99884.53;5005956;28;20072;-56
2022/05/21 04:09:18;;;;;;;7.95;3.25;;;;;;;10.06;90.45;99884.22;5002151;28;20029;-56
2022/05/21 04:11:43;;;;;;;7.22;2.65;;;;;;;11.84;81.30;99879.16;5007526;28;20033;-54
2022/05/21 04:14:11;;;;;;;7.05;2.72;;;;;;;12.43;77.68;99881.78;4988737;28;20029;-55
2022/05/21 04:16:36;;;;;;;8.18;2.63;;;;;;;13.13;74.29;99879.84;5007807;28;20029;-55
2022/05/21 04:19:02;;;;;;;7.82;3.03;;;;;;;13.35;72.93;99883.47;5007097;28;20057;-55
2022/05/21 04:21:28;;;;;;;4.38;2.33;;;;;;;13.99;70.65;99888.44;5006942;28;20053;-55
2022/05/21 04:23:55;;;;;;;10.30;2.40;;;;;;;14.13;69.54;99883.50;5005560;28;20030;-54
2022/05/21 04:26:21;;;;;;;9.98;2.42;;;;;;;14.05;69.59;99883.91;5004210;28;20034;-56
2022/05/21 04:28:46;;;;;;;10.50;3.17;;;;;;;14.98;66.78;99877.75;4975425;28;20069;-55
2022/05/21 04:31:12;;;;;;;6.57;2.10;;;;;;;14.61;67.03;99886.53;5001417;28;20115;-55
2022/05/21 04:33:37;;;;;;;7.82;2.35;;;;;;;15.07;66.03;99884.28;4972898;28;20468;-55
2022/05/21 04:36:18;;;;;;;7.50;2.03;;;;;;;15.54;64.22;99875.50;4989420;28;20018;-55
2022/05/21 04:38:48;;;;;;;6.43;2.20;;;;;;;16.68;60.99;99880.44;4980390;28;20040;-55
2022/05/21 04:41:14;;;;;;;5.65;1.98;;;;;;;17.71;57.45;99884.84;5006885;28;20054;-55
2022/05/21 04:43:40;;;;;;;4.53;2.00;;;;;;;16.68;61.32;99893.97;5006745;28;20488;-55
2022/05/21 04:46:06;;;;;;;3.15;1.70;;;;;;;17.14;60.06;99894.88;5000774;28;20540;-55
2022/05/21 04:48:32;;;;;;;8.90;2.03;;;;;;;17.29;57.81;99883.22;5005984;28;20045;-56
2022/05/21 04:50:59;;;;;;;13.48;2.35;;;;;;;16.05;63.77;99886.69;4989165;28;20018;-55
2022/05/21 04:53:24;;;;;;;7.07;2.10;;;;;;;15.44;65.67;99886.25;5005823;28;20033;-55
2022/05/21 04:55:50;;;;;;;7.53;2.30;;;;;;;15.86;64.74;99890.88;5005564;28;20117;-55
2022/05/21 04:58:15;;;;;;;4.28;2.20;;;;;;;15.77;63.91;99887.03;5004721;28;20513;-57
2022/05/21 05:00:41;;;;;;;7.63;2.50;;;;;;;15.17;68.94;99887.09;4988963;28;20088;-57
2022/05/21 05:03:13;;;;;;;5.72;2.47;;;;;;;16.16;63.75;99885.63;5005676;28;20036;-57
2022/05/21 05:05:42;;;;;;;8.65;2.50;;;;;;;14.70;67.57;99881.50;5006715;28;20490;-58
2022/05/21 05:08:08;;;;;;;9.37;3.13;;;;;;;16.05;64.15;99881.28;5005304;28;20151;-55
2022/05/21 05:10:34;;;;;;;5.72;2.70;;;;;;;15.68;65.55;99887.50;5007068;28;20572;-55
2022/05/21 05:12:59;;;;;;;6.40;2.58;;;;;;;15.73;64.49;99895.66;5006360;28;20093;-55
2022/05/21 05:15:25;;;;;;;7.82;2.47;;;;;;;16.38;63.63;99895.47;5000398;28;20796;-55
2022/05/21 05:17:57;;;;;;;10.13;2.90;;;;;;;17.12;61.19;99896.22;5005996;28;20396;-56
2022/05/21 05:20:23;;;;;;;5.60;2.33;;;;;;;14.98;66.92;99910.16;4985940;28;20109;-55
2022/05/21 05:22:48;;;;;;;5.57;2.60;;;;;;;15.76;66.60;99909.75;5005627;28;20116;-55
2022/05/21 05:25:14;;;;;;;7.25;2.60;;;;;;;16.69;62.29;99909.09;4981650;28;20034;-55
2022/05/21 05:27:39;;;;;;;6.85;2.55;;;;;;;17.15;62.35;99911.97;5004046;28;20530;-56
2022/05/21 05:30:06;;;;;;;8.60;2.50;;;;;;;16.17;63.98;99910.78;5006614;28;20072;-55
2022/05/21 05:32:32;;;;;;;7.28;2.90;;;;;;;17.10;60.26;99911.91;5002914;28;20029;-56
2022/05/21 05:34:58;;;;;;;7.50;2.83;;;;;;;17.36;61.00;99905.47;4999290;28;20080;-56
2022/05/21 05:37:23;;;;;;;7.57;2.83;;;;;;;17.52;60.56;99905.44;5004171;28;20029;-56
2022/05/21 05:39:49;;;;;;;3.75;2.50;;;;;;;16.58;62.99;99898.25;4987277;28;20109;-56
2022/05/21 05:42:17;;;;;;;5.82;2.55;;;;;;;17.30;61.69;99895.72;5003491;28;20030;-56
2022/05/21 05:44:43;;;;;;;4.72;2.40;;;;;;;16.72;61.95;99905.88;4996684;28;20045;-55
2022/05/21 05:47:08;;;;;;;6.03;2.17;;;;;;;17.20;61.57;99903.84;5005615;28;20042;-55
2022/05/21 05:49:34;;;;;;;7.00;2.47;;;;;;;18.61;57.32;99913.88;4985863;28;20027;-56
2022/05/21 05:52:00;;;;;;;9.07;2.60;;;;;;;19.83;53.77;99914.16;5004237;28;20498;-56
2022/05/21 05:54:26;;;;;;;5.25;2.20;;;;;;;19.51;52.81;99907.31;5004699;28;20072;-56
2022/05/21 05:56:51;;;;;;;4.93;1.90;;;;;;;19.52;53.39;99921.72;5004964;28;20037;-56
2022/05/21 06:04:48;;;;;;;5.50;1.90;;;;;;;21.75;47.83;99911.00;5003529;28;20092;-56
2022/05/21 06:07:14;;;;;;;4.53;1.80;;;;;;;22.30;46.87;99913.00;4985726;28;20022;-55
2022/05/21 06:09:43;;;;;;;4.63;1.70;;;;;;;21.94;46.76;99919.13;5002199;28;20035;-55
2022/05/21 06:12:09;;;;;;;5.35;1.90;;;;;;;20.86;49.04;99920.00;5004978;28;20034;-55
2022/05/21 06:14:35;;;;;;;5.40;1.92;;;;;;;20.57;48.65;99919.34;5004103;28;20034;-55
2022/05/21 06:17:01;;;;;;;7.85;1.70;;;;;;;19.28;53.14;99921.66;5003636;28;20118;-55
2022/05/21 06:19:27;;;;;;;7.43;1.90;;;;;;;18.60;55.51;99925.84;5001819;28;20378;-56
2022/05/21 06:21:57;;;;;;;6.18;1.75;;;;;;;18.64;55.46;99929.59;5001999;28;20042;-54
2022/05/21 06:24:23;;;;;;;5.63;2.03;;;;;;;17.03;59.73;99920.31;5002300;28;20018;-55
2022/05/21 06:26:51;;;;;;;6.53;2.00;;;;;;;19.04;54.48;99916.91;5004159;28;20113;-54
2022/05/21 06:29:17;;;;;;;7.47;1.73;;;;;;;21.58;47.28;99915.41;5005465;28;20029;-56
2022/05/21 06:31:43;;;;;;;5.30;1.70;;;;;;;22.64;44.90;99921.88;5002326;28;20042;-56
2022/05/21 06:34:08;;;;;;;8.07;2.03;;;;;;;22.79;43.91;99927.03;5004304;28;20076;-56
2022/05/21 06:36:34;;;;;;;3.90;1.80;;;;;;;23.16;43.69;99925.13;5003747;28;20112;-57
2022/05/21 06:39:00;;;;;;;5.40;1.77;;;;;;;21.62;46.61;99939.06;5002552;28;20445;-56
2022/05/21 06:41:28;;;;;;;6.70;1.77;;;;;;;21.74;46.60;99931.22;4986900;28;20492;-55
2022/05/21 06:43:54;;;;;;;6.10;1.73;;;;;;;20.91;49.19;99930.03;5000633;28;20034;-56
2022/05/21 06:46:20;;;;;;;6.85;1.95;;;;;;;19.09;52.39;99930.47;5001470;28;20412;-55
2022/05/21 06:48:45;;;;;;;3.88;1.45;;;;;;;19.42;53.38;99938.97;5002637;28;20077;-55
2022/05/21 06:51:11;;;;;;;5.10;1.83;;;;;;;22.60;46.25;99941.63;5001512;28;20506;-56
2022/05/21 06:53:40;;;;;;;5.38;2.08;;;;;;;21.15;49.01;99935.41;5002193;28;20056;-55
2022/05/21 06:56:13;;;;;;;7.93;2.13;;;;;;;20.94;49.40;99934.09;4983240;28;20035;-55
2022/05/21 06:58:39;;;;;;;6.63;2.10;;;;;;;21.53;48.16;99932.66;5003239;28;20026;-56
2022/05/21 07:01:05;;;;;;;5.93;1.90;;;;;;;21.39;48.09;99934.53;5007803;28;20030;-56
2022/05/21 07:03:30;;;;;;;5.95;2.10;;;;;;;22.71;44.84;99933.19;5006718;28;20034;-57
2022/05/21 07:08:40;;;;;;;5.60;2.10;;;;;;;22.25;45.79;99953.25;5005700;28;20096;-56
2022/05/21 07:11:06;;;;;;;6.32;2.00;;;;;;;20.89;48.48;99945.84;5008097;28;20033;-56
2022/05/21 07:13:32;;;;;;;6.90;2.03;;;;;;;21.13;49.75;99942.28;4991062;28;20088;-56
2022/05/21 07:15:57;;;;;;;6.40;2.00;;;;;;;21.46;46.44;99930.31;5006562;28;20041;-55
2022/05/21 07:18:24;;;;;;;7.72;2.00;;;;;;;20.61;47.63;99947.59;4989402;28;20041;-55
2022/05/21 07:20:51;;;;;;;6.97;2.15;;;;;;;20.45;49.15;99952.41;5005781;28;20038;-56
2022/05/21 07:23:17;;;;;;;6.18;2.00;;;;;;;18.78;53.38;99950.75;5007750;28;20616;-56
2022/05/21 07:25:42;;;;;;;5.28;1.90;;;;;;;18.49;54.79;99948.66;5007835;28;20417;-56
2022/05/21 07:28:08;;;;;;;7.55;2.03;;;;;;;18.46;55.40;99960.09;5007838;28;20531;-56
2022/05/21 07:30:35;;;;;;;5.28;1.60;;;;;;;17.86;57.45;99952.63;5008805;28;20435;-56
2022/05/21 07:33:00;;;;;;;8.73;2.05;;;;;;;17.71;57.07;99959.94;5003617;28;20033;-57
2022/05/21 07:35:27;;;;;;;7.53;2.33;;;;;;;17.43;57.75;99965.63;4994227;28;20030;-56
2022/05/21 07:37:52;;;;;;;5.25;1.80;;;;;;;17.30;59.77;99960.72;5003110;28;20392;-55
2022/05/21 07:40:18;;;;;;;5.75;2.05;;;;;;;18.40;55.92;99966.63;5002820;28;20519;-56
2022/05/21 07:42:44;;;;;;;5.47;1.73;;;;;;;18.85;53.85;99965.66;5004827;28;20052;-55
2022/05/21 07:45:11;;;;;;;6.30;2.30;;;;;;;17.75;57.72;99971.88;5006711;28;20495;-55
2022/05/21 07:47:37;;;;;;;6.38;2.00;;;;;;;18.05;57.02;99965.63;4983818;28;20042;-55
2022/05/21 07:50:03;;;;;;;6.55;2.10;;;;;;;17.20;56.83;99960.72;4986515;28;20038;-54
2022/05/21 07:52:29;;;;;;;7.40;2.13;;;;;;;20.83;49.89;99966.13;4987084;28;20033;-56
2022/05/21 07:54:55;;;;;;;8.05;1.70;;;;;;;18.94;53.74;99963.16;4982820;28;20081;-55
2022/05/21 07:57:23;;;;;;;5.82;1.90;;;;;;;17.82;54.40;99970.53;4981506;28;20456;-55
2022/05/21 07:59:52;;;;;;;6.22;1.83;;;;;;;18.49;53.24;99971.19;4992797;28;20026;-55
2022/05/21 08:02:18;;;;;;;6.90;2.05;;;;;;;17.78;55.49;99966.72;4988004;28;20435;-56
2022/05/21 08:04:44;;;;;;;6.35;2.05;;;;;;;17.91;56.18;99959.94;4987918;28;20026;-56
2022/05/21 08:07:10;;;;;;;5.55;2.05;;;;;;;16.95;56.29;99951.47;4981146;28;20405;-54
2022/05/21 08:09:35;;;;;;;7.20;2.13;;;;;;;17.62;56.93;99951.50;4981248;28;20022;-52
2022/05/21 08:12:02;;;;;;;6.20;1.95;;;;;;;18.52;54.48;99958.97;4987190;28;20069;-55
2022/05/21 08:14:28;;;;;;;4.03;1.67;;;;;;;21.31;47.05;99955.88;4987911;28;20088;-55
2022/05/21 08:16:54;;;;;;;9.85;2.33;;;;;;;22.71;44.20;99964.06;4986968;28;20030;-56
2022/05/21 08:19:19;;;;;;;13.60;2.38;;;;;;;20.56;47.90;99956.63;4986671;28;20706;-55
2022/05/21 08:21:45;;;;;;;6.75;1.92;;;;;;;19.37;52.11;99958.81;4983711;28;20045;-56
2022/05/21 08:27:05;;;;;;;6.75;2.20;;;;;;;19.80;49.23;99958.25;4932275;28;20043;-54
2022/05/21 08:29:35;;;;;;;6.18;1.77;;;;;;;18.98;50.97;99955.28;4983712;28;20057;-54
2022/05/21 08:32:01;;;;;;;;;;;;;;;19.14;51.06;99957.59;4985848;28;20144;-55
2022/05/21 08:34:27;;;;;;;9.48;2.42;;;;;;;20.95;46.33;99960.25;4984850;28;20569;-54
2022/05/21 08:36:53;;;;;;;5.72;1.67;;;;;;;20.67;47.55;99946.44;4986789;28;20058;-55
2022/05/21 08:39:19;;;;;;;7.10;2.33;;;;;;;21.09;47.70;99958.38;4984447;28;20026;-55
2022/05/21 08:41:57;;;;;;;6.32;1.65;;;;;;;20.25;49.75;99961.59;4984104;28;20035;-55
2022/05/21 08:44:44;;;;;;;7.30;1.98;;;;;;;19.08;51.51;99956.03;4984585;28;20031;-53
2022/05/21 08:47:20;;;;;;;5.70;1.75;;;;;;;19.52;51.00;99955.19;4989599;28;20104;-56
2022/05/21 08:50:05;;;;;;;9.10;2.13;;;;;;;19.06;49.74;99952.78;5006878;28;20518;-58
2022/05/21 08:52:56;;;;;;;8.40;1.98;;;;;;;19.46;50.04;99948.16;5005259;28;20129;-54
2022/05/21 08:55:26;;;;;;;6.68;1.85;;;;;;;21.18;47.80;99951.19;5003879;28;20026;-55
2022/05/21 08:58:17;;;;;;;6.35;1.75;;;;;;;21.29;46.01;99949.94;4972139;28;20045;-54
2022/05/21 09:00:44;;;;;;;7.13;1.90;;;;;;;19.17;52.25;99948.91;5005306;28;20049;-55
2022/05/21 09:03:11;;;;;;;8.13;1.90;;;;;;;19.51;50.61;99950.81;5004537;28;20061;-56
2022/05/21 09:05:38;;;;;;;6.28;2.00;;;;;;;19.99;49.98;99953.72;5005678;28;20022;-55
2022/05/21 09:08:10;;;;;;;5.85;1.90;;;;;;;19.77;51.59;99961.53;4988386;28;20080;-57
2022/05/21 09:10:58;;;;;;;5.82;1.83;;;;;;;21.74;46.20;99958.50;4984445;28;20041;-54
2022/05/21 09:13:46;;;;;;;5.80;1.80;;;;;;;21.23;46.20;99955.75;4986460;28;20049;-54
2022/05/21 09:19:03;;;;;;;5.20;1.85;;;;;;;20.00;46.23;99960.75;4999581;28;20060;-55
2022/05/21 09:21:29;;;;;;;4.38;1.40;;;;;;;19.44;47.23;99968.56;5002889;28;20483;-55
2022/05/21 09:24:01;;;;;;;4.90;1.83;;;;;;;20.38;45.84;99952.75;5000467;28;20026;-54
2022/05/21 09:26:29;;;;;;;4.50;1.50;;;;;;;21.41;43.83;99954.94;4984144;28;20396;-55
2022/05/21 09:29:13;;;;;;;5.47;1.80;;;;;;;21.89;42.04;99960.16;4995209;28;20205;-55
2022/05/21 09:31:39;;;;;;;6.43;1.52;;;;;;;21.91;42.08;99959.84;4980831;28;20069;-56
2022/05/21 09:34:22;;;;;;;4.72;1.60;;;;;;;22.44;41.76;99955.88;5001889;28;20077;-55
2022/05/21 09:36:47;;;;;;;5.72;1.67;;;;;;;23.09;41.20;99958.38;5001056;28;20018;-56
2022/05/21 09:39:23;;;;;;;4.57;1.58;;;;;;;21.72;44.45;99958.00;4999429;28;20069;-56
2022/05/21 09:41:49;;;;;;;5.53;1.65;;;;;;;22.40;44.23;99958.41;4963013;28;20026;-55
2022/05/21 09:47:16;;;;;;;10.07;1.73;;;;;;;21.01;45.33;99956.34;4986296;28;20119;-54
2022/05/21 09:49:42;;;;;;;6.32;1.73;;;;;;;20.76;45.46;99965.66;5001045;28;20069;-55
2022/05/21 09:52:22;;;;;;;5.32;1.55;;;;;;;21.92;43.94;99958.75;4967609;28;20027;-54
2022/05/21 09:54:51;;;;;;;4.07;1.73;;;;;;;21.50;43.27;99966.00;4961267;28;20031;-55
2022/05/21 09:57:22;;;;;;;6.03;2.20;;;;;;;22.13;43.30;99959.97;5002136;28;20681;-55
2022/05/21 10:00:22;;;;;;;4.82;1.50;;;;;;;21.16;44.05;99964.28;4986431;28;20038;-57
2022/05/21 10:02:49;;;;;;;5.72;1.98;;;;;;;21.84;43.03;99959.41;5004437;28;20026;-55
2022/05/21 10:05:24;;;;;;;5.75;1.70;;;;;;;20.82;45.18;99959.88;5004152;28;20088;-55
2022/05/21 10:10:59;;;;;;;4.57;1.70;;;;;;;20.07;45.51;99975.94;5002426;28;20708;-55
2022/05/21 10:13:45;;;;;;;5.93;2.25;;;;;;;20.36;46.71;99960.38;4969624;28;20096;-55
2022/05/21 10:16:52;;;;;;;4.47;1.70;;;;;;;20.08;45.83;99950.34;4989103;28;20171;-54
2022/05/21 10:19:56;;;;;;;3.63;1.70;;;;;;;22.01;44.37;99954.19;4973705;28;20181;-55
2022/05/21 10:22:38;;;;;;;9.85;5.22;;;;;;;20.97;45.16;99949.88;5004264;28;20041;-56
2022/05/21 10:25:18;;;;;;;3.83;1.70;;;;;;;20.45;47.26;99955.13;4988106;28;20487;-55
2022/05/21 10:27:52;;;;;;;20.25;15.82;;;;;;;20.70;45.39;99945.84;5004510;28;20105;-55
2022/05/21 10:30:27;;;;;;;6.03;1.67;;;;;;;21.43;43.58;99947.28;5003891;28;20044;-56
2022/05/21 10:33:02;;;;;;;4.55;1.60;;;;;;;21.84;42.89;99943.88;4970519;28;20089;-53
2022/05/21 10:35:36;;;;;;;6.18;1.48;;;;;;;21.81;41.85;99947.19;5008481;28;20030;-55
2022/05/21 10:38:21;;;;;;;4.80;1.60;;;;;;;22.63;39.92;99951.13;5009328;28;20715;-54
2022/05/21 10:41:12;;;;;;;3.45;1.52;;;;;;;21.51;42.57;99943.88;5006121;28;20038;-54
2022/05/21 10:43:40;;;;;;;3.00;1.50;;;;;;;21.03;43.58;99946.75;5001831;28;20141;-55
2022/05/21 10:46:25;;;;;;;8.10;2.08;;;;;;;20.69;44.62;99938.78;5008119;28;20093;-54
2022/05/21 10:49:23;;;;;;;5.00;1.75;;;;;;;20.83;43.60;99939.69;5003401;28;20077;-54
2022/05/21 10:52:15;;;;;;;5.65;1.80;;;;;;;20.55;46.00;99948.78;5007175;28;20063;-55
2022/05/21 10:54:59;;;;;;;4.07;1.60;;;;;;;20.70;45.85;99945.06;4999170;28;20049;-55
2022/05/21 10:57:55;;;;;;;3.60;1.60;;;;;;;21.51;42.05;99949.31;5004440;28;20029;-55
2022/05/21 11:00:38;;;;;;;4.18;1.60;;;;;;;22.22;41.04;99953.88;5004600;28;20038;-54
2022/05/21 11:03:16;;;;;;;5.63;1.70;;;;;;;21.65;40.67;99943.94;5004670;28;20120;-54
2022/05/21 11:06:02;;;;;;;3.78;1.50;;;;;;;21.71;40.71;99952.81;5005946;28;20033;-55
2022/05/21 11:09:06;;;;;;;4.45;1.80;;;;;;;21.03;41.86;99945.94;4987333;28;20022;-55
2022/05/21 11:11:48;;;;;;;6.97;1.70;;;;;;;20.81;43.31;99950.06;5002550;28;20317;-55
2022/05/21 11:14:19;;;;;;;10.43;1.90;;;;;;;20.84;43.88;99949.50;4987654;28;20022;-56
2022/05/21 11:17:04;;;;;;;10.57;2.40;;;;;;;22.17;41.29;99944.63;4991087;28;20034;-54
2022/05/21 11:19:36;;;;;;;3.60;1.60;;;;;;;21.53;42.61;99943.59;4992687;28;20160;-54
2022/05/21 11:22:07;;;;;;;3.70;1.60;;;;;;;21.85;41.11;99941.97;4989559;28;20105;-57
2022/05/21 11:24:50;;;;;;;3.63;1.42;;;;;;;22.25;41.49;99939.63;4975150;28;20053;-55
2022/05/21 11:27:27;;;;;;;6.45;1.65;;;;;;;22.78;39.76;99942.59;4987604;28;20041;-57
2022/05/21 11:29:56;;;;;;;3.88;1.85;;;;;;;22.08;40.36;99943.69;4989671;28;20021;-55
2022/05/21 11:38:21;;;;;;;5.45;1.70;;;;;;;21.07;42.87;99939.63;5002410;28;20040;-57
2022/05/21 11:46:56;;;;;;;4.55;1.80;;;;;;;20.91;43.05;99943.66;5006850;28;20048;-55
2022/05/21 11:49:31;;;;;;;6.32;1.70;;;;;;;21.97;41.25;99942.28;4982801;28;20255;-54
2022/05/21 11:51:59;;;;;;;8.32;2.03;;;;;;;21.56;41.58;99932.06;5007826;28;20058;-55
2022/05/21 11:54:54;;;;;;;7.25;1.60;;;;;;;21.01;42.02;99938.06;4983016;28;20424;-56
2022/05/21 11:57:45;;;;;;;5.43;1.67;;;;;;;21.81;40.64;99930.81;4993918;28;20038;-54
2022/05/21 12:00:17;;;;;;;10.95;1.90;;;;;;;22.08;41.09;99934.72;4989143;28;20054;-56
2022/05/21 12:02:53;;;;;;;6.88;2.00;;;;;;;22.22;38.91;99937.50;5006333;28;20030;-55
2022/05/21 12:05:44;;;;;;;13.48;1.90;;;;;;;22.60;39.20;99941.63;5003189;28;20036;-54
2022/05/21 12:08:12;;;;;;;5.07;1.90;;;;;;;22.33;39.27;99942.44;4995685;28;20042;-54
2022/05/21 12:10:55;;;;;;;6.32;1.88;;;;;;;21.92;40.38;99931.47;5005518;28;20037;-54
2022/05/21 12:13:33;;;;;;;7.63;2.10;;;;;;;21.69;40.66;99935.94;5002702;28;20555;-56
2022/05/21 12:16:19;;;;;;;5.43;1.73;;;;;;;21.72;40.17;99932.63;5002064;28;20040;-54
2022/05/21 12:18:51;;;;;;;5.47;1.60;;;;;;;21.75;39.81;99930.09;5005533;28;20119;-56
2022/05/21 12:21:36;;;;;;;6.85;2.05;;;;;;;21.23;41.83;99932.03;4970990;28;20026;-56
2022/05/21 12:24:26;;;;;;;6.82;1.80;;;;;;;21.90;39.42;99925.50;4977786;28;20130;-54